»·PEaware :: N4527T KRNM-KFUL

N4527T :: KRNM-KFUL

FLIGHT INFORMATION

Flight Status: Arrived
Operator: Privately registered:
United States
More flights under this callsign
Pilot: Kris A. (796)
Aircraft: BEECH AIRCRAFT BONANZA
(BE36)
More flights by this aircraft type
Origin: KRNM Ramona
United States
Destination: KFUL Fullerton Mun
United States
More flights between these airports :: More routes between these airports
Route: ROBNN V208 OCN V23 SLI
File this flight plan on PilotEdge
Remarks: SANN3 Tec Route
Altitude:
(Current/Filed)
6,000ft
Speed:
(Current/Filed)
160kts
Departed: 30-Aug-16 07:29 AM
Arrived: 30-Aug-16 08:08 AM
Distance/Time
Traveled:
73nm/0:39
Distance/Time
To Go:
Arrived

Flight Plot

Page will automatically refresh every two minutes.


Map Options




Map Legend


Flown Route
Filed Route
Departure Airport
Arrival Airport
Navaid (VOR, NDB)
Fix

Horizontal Profiles

Position Reports

Time Latitude Longitude Heading Altitude Ground
Speed
30-Aug-16 07:11 33.039394 -116.908319 190 1397ft 0kts
30-Aug-16 07:12 33.039394 -116.908319 190 1397ft 0kts
30-Aug-16 07:13 33.039394 -116.908319 190 1397ft 0kts
30-Aug-16 07:14 33.039394 -116.908319 190 1397ft 0kts
30-Aug-16 07:15 33.039394 -116.908319 190 1397ft 0kts
30-Aug-16 07:16 33.039394 -116.908319 190 1397ft 0kts
30-Aug-16 07:17 33.039394 -116.908319 190 1397ft 0kts
30-Aug-16 07:18 33.039394 -116.908319 190 1397ft 0kts
30-Aug-16 07:19 33.039394 -116.908319 190 1397ft 0kts
30-Aug-16 07:20 33.039394 -116.908319 190 1397ft 0kts
30-Aug-16 07:21 33.039394 -116.908319 190 1397ft 0kts
30-Aug-16 07:22 33.039394 -116.908319 190 1397ft 0kts
30-Aug-16 07:23 33.039394 -116.908319 190 1397ft 0kts
30-Aug-16 07:24 33.038904 -116.907875 151 1397ft 10kts
30-Aug-16 07:25 33.038494 -116.907298 185 1397ft 0kts
30-Aug-16 07:26 33.038493 -116.907298 185 1397ft 0kts
30-Aug-16 07:27 33.038241 -116.909072 277 1397ft 46kts
30-Aug-16 07:28 33.043160 -116.941600 279 2102ft 124kts
30-Aug-16 07:29 33.049772 -116.985542 280 2829ft 141kts
30-Aug-16 07:30 33.056833 -117.032703 280 3537ft 148kts
30-Aug-16 07:31 33.075323 -117.071755 342 4243ft 148kts
30-Aug-16 07:32 33.115222 -117.085515 343 4914ft 148kts
30-Aug-16 07:33 33.155746 -117.096384 347 5604ft 152kts
30-Aug-16 07:34 33.197657 -117.105392 333 5986ft 162kts
30-Aug-16 07:35 33.209237 -117.158098 277 5974ft 171kts
30-Aug-16 07:36 33.216497 -117.214163 279 5974ft 173kts
30-Aug-16 07:37 33.223527 -117.271535 278 5971ft 179kts
30-Aug-16 07:38 33.230259 -117.329717 278 5966ft 178kts
30-Aug-16 07:39 33.237027 -117.386995 278 5965ft 174kts
30-Aug-16 07:40 33.252183 -117.438379 324 5978ft 168kts
30-Aug-16 07:41 33.288473 -117.472726 313 5971ft 165kts
30-Aug-16 07:42 33.321406 -117.510813 315 5972ft 164kts
30-Aug-16 07:43 33.354262 -117.548849 315 5992ft 164kts
30-Aug-16 07:44 33.387232 -117.586956 315 5994ft 164kts
30-Aug-16 07:45 33.420220 -117.625112 315 5996ft 164kts
30-Aug-16 07:46 33.453080 -117.663165 315 5999ft 164kts
30-Aug-16 07:47 33.485988 -117.701432 315 6002ft 164kts
30-Aug-16 07:48 33.519552 -117.738885 316 6019ft 169kts
30-Aug-16 07:49 33.554299 -117.779323 313 6013ft 177kts
30-Aug-16 07:50 33.587605 -117.820282 313 6014ft 166kts
30-Aug-16 07:51 33.620691 -117.860048 314 6011ft 166kts
30-Aug-16 07:52 33.661979 -117.869009 11 5566ft 165kts
30-Aug-16 07:53 33.707300 -117.855696 12 4568ft 169kts
30-Aug-16 07:54 33.752228 -117.843042 12 4002ft 154kts
30-Aug-16 07:55 33.796465 -117.830815 12 4010ft 169kts
30-Aug-16 07:56 33.841209 -117.814424 48 4007ft 171kts
30-Aug-16 07:57 33.855170 -117.768842 72 4013ft 178kts
30-Aug-16 07:58 33.892927 -117.734620 352 3632ft 175kts
30-Aug-16 07:59 33.924881 -117.755514 274 3043ft 174kts
30-Aug-16 08:00 33.905796 -117.804432 259 3008ft 137kts
30-Aug-16 08:01 33.898353 -117.844817 255 2469ft 105kts
30-Aug-16 08:02 33.892114 -117.874819 257 1923ft 91kts
30-Aug-16 08:03 33.886221 -117.906389 257 1555ft 101kts
30-Aug-16 08:04 33.879909 -117.938388 257 904ft 90kts
30-Aug-16 08:05 33.874947 -117.964474 257 358ft 73kts
30-Aug-16 08:06 33.871686 -117.979521 168 100ft 0kts
30-Aug-16 08:07 33.870451 -117.978701 39 100ft 0kts
30-Aug-16 08:08 33.870452 -117.978700 39 100ft 0kts

Navigation Log

Ident Type
Flight plan parsing failed, navigation log unavailable